createdAt,value
2022-10-16T00:01:40.675Z,68.31
2022-10-16T00:04:07.602Z,68.33
2022-10-16T00:06:34.398Z,68.50
2022-10-16T00:09:01.241Z,68.29
2022-10-16T00:11:34.280Z,68.71
2022-10-16T00:14:02.860Z,68.43
2022-10-16T00:16:30.431Z,68.53
2022-10-16T00:18:58.033Z,68.75
2022-10-16T00:21:27.280Z,69.25
2022-10-16T00:24:13.018Z,69.09
2022-10-16T00:26:41.085Z,69.17
2022-10-16T00:29:08.161Z,68.95
2022-10-16T00:31:35.084Z,69.30
2022-10-16T00:34:02.481Z,69.52
2022-10-16T00:36:29.592Z,69.29
2022-10-16T00:41:34.306Z,70.18
2022-10-16T00:44:04.163Z,70.36
2022-10-16T00:46:38.233Z,70.14
2022-10-16T00:49:14.083Z,70.15
2022-10-16T00:51:42.340Z,70.00
2022-10-16T00:54:14.311Z,70.00
2022-10-16T00:56:42.257Z,70.20
2022-10-16T00:59:20.350Z,69.98
2022-10-16T01:01:47.554Z,70.28
2022-10-16T01:04:14.681Z,70.13
2022-10-16T01:07:00.070Z,70.20
2022-10-16T01:09:38.109Z,70.04
2022-10-16T01:12:10.914Z,70.26
2022-10-16T01:14:46.885Z,70.30
2022-10-16T01:17:22.335Z,70.12
2022-10-16T01:20:15.124Z,70.17
2022-10-16T01:22:57.095Z,70.21
2022-10-16T01:25:40.708Z,70.51
2022-10-16T01:28:13.099Z,70.41
2022-10-16T01:30:43.018Z,70.74
2022-10-16T01:33:19.223Z,70.48
2022-10-16T01:35:53.361Z,70.46
2022-10-16T01:38:41.419Z,70.97
2022-10-16T01:41:39.121Z,70.36
2022-10-16T01:44:11.068Z,70.56
2022-10-16T01:46:40.340Z,70.57
2022-10-16T01:49:09.142Z,70.23
2022-10-16T01:51:38.105Z,70.40
2022-10-16T01:54:09.019Z,70.48
2022-10-16T01:56:37.833Z,70.60
2022-10-16T01:59:12.540Z,70.25
2022-10-16T02:01:43.522Z,69.85
2022-10-16T02:04:17.521Z,70.35
2022-10-16T02:06:44.527Z,69.68
2022-10-16T02:09:11.923Z,69.84
2022-10-16T02:11:38.840Z,69.60
2022-10-16T02:14:07.389Z,69.67
2022-10-16T02:16:43.132Z,69.55
2022-10-16T02:19:14.183Z,69.44
2022-10-16T02:21:45.941Z,69.69
2022-10-16T02:24:41.579Z,69.57
2022-10-16T02:27:19.164Z,69.73
2022-10-16T02:29:59.710Z,69.55
2022-10-16T02:32:31.863Z,70.13
2022-10-16T02:35:00.710Z,70.31
2022-10-16T02:37:29.031Z,70.12
2022-10-16T02:39:58.999Z,70.06
2022-10-16T02:42:31.031Z,70.43
2022-10-16T02:44:57.755Z,70.18
2022-10-16T02:47:24.669Z,70.55
2022-10-16T02:49:51.517Z,70.70
2022-10-16T02:52:18.465Z,70.39
2022-10-16T02:54:45.269Z,70.64
2022-10-16T02:57:12.755Z,70.96
2022-10-16T02:59:39.747Z,70.71
2022-10-16T03:02:06.676Z,70.98
2022-10-16T03:04:33.585Z,71.33
2022-10-16T03:07:00.402Z,71.03
2022-10-16T03:09:27.282Z,70.63
2022-10-16T03:11:54.149Z,70.68
2022-10-16T03:14:21.081Z,70.67
2022-10-16T03:16:48.051Z,70.58
2022-10-16T03:19:14.872Z,70.93
2022-10-16T03:21:41.734Z,70.63
2022-10-16T03:24:08.595Z,70.57
2022-10-16T03:26:35.510Z,70.15
2022-10-16T03:29:04.287Z,69.66
2022-10-16T03:31:31.581Z,69.73
2022-10-16T03:33:58.436Z,70.01
2022-10-16T03:36:25.406Z,70.00
2022-10-16T03:38:52.175Z,70.33
2022-10-16T03:41:19.130Z,70.52
2022-10-16T03:43:45.988Z,69.80
2022-10-16T03:46:12.788Z,70.42
2022-10-16T03:48:40.892Z,70.17
2022-10-16T03:51:07.755Z,70.16
2022-10-16T03:53:35.620Z,70.09
2022-10-16T03:56:02.510Z,70.24
2022-10-16T03:58:29.548Z,70.02
2022-10-16T04:00:56.364Z,70.07
2022-10-16T04:03:23.992Z,69.96
2022-10-16T04:05:51.563Z,69.91
2022-10-16T04:08:19.238Z,69.77
2022-10-16T04:10:46.403Z,69.86
2022-10-16T04:13:13.823Z,69.79
2022-10-16T04:15:40.773Z,69.69
2022-10-16T04:18:07.963Z,70.55
2022-10-16T04:20:35.406Z,70.27
2022-10-16T04:23:02.271Z,69.93
2022-10-16T04:25:29.114Z,70.14
2022-10-16T04:27:56.604Z,70.05
2022-10-16T04:30:24.325Z,69.88
2022-10-16T04:32:52.507Z,70.30
2022-10-16T04:35:21.700Z,69.93
2022-10-16T04:37:49.117Z,69.90
2022-10-16T04:40:16.981Z,69.81
2022-10-16T04:42:44.138Z,69.80
2022-10-16T04:45:13.483Z,69.11
2022-10-16T04:47:43.349Z,69.16
2022-10-16T04:50:10.227Z,69.36
2022-10-16T04:52:37.834Z,68.85
2022-10-16T04:55:05.152Z,69.07
2022-10-16T04:57:32.303Z,69.06
2022-10-16T04:59:59.103Z,69.15
2022-10-16T05:02:26.162Z,69.15
2022-10-16T05:04:53.132Z,69.86
2022-10-16T05:07:19.937Z,70.47
2022-10-16T05:09:46.785Z,70.58
2022-10-16T05:12:13.667Z,70.54
2022-10-16T05:14:40.578Z,71.36
2022-10-16T05:17:07.518Z,71.65
2022-10-16T05:19:34.790Z,71.61
2022-10-16T05:22:02.144Z,71.85
2022-10-16T05:24:28.997Z,72.04
2022-10-16T05:26:56.076Z,72.08
2022-10-16T05:29:23.840Z,72.11
2022-10-16T05:31:53.043Z,72.21
2022-10-16T05:34:21.585Z,72.51
2022-10-16T05:36:48.721Z,72.48
2022-10-16T05:39:17.176Z,72.84
2022-10-16T05:41:44.855Z,73.09
2022-10-16T05:44:13.058Z,72.52
2022-10-16T05:46:40.564Z,73.26
2022-10-16T05:49:07.500Z,72.45
2022-10-16T05:51:35.628Z,72.88
2022-10-16T05:54:02.630Z,72.33
2022-10-16T05:56:30.162Z,72.50
2022-10-16T05:58:57.391Z,72.09
2022-10-16T06:01:25.470Z,72.03
2022-10-16T06:03:53.427Z,71.60
2022-10-16T06:06:29.575Z,71.28
2022-10-16T06:08:57.704Z,70.34
2022-10-16T06:11:29.153Z,69.91
2022-10-16T06:13:58.909Z,69.31
2022-10-16T06:16:27.272Z,68.86
2022-10-16T06:18:56.896Z,67.62
2022-10-16T06:21:26.681Z,67.00
2022-10-16T06:23:55.397Z,66.75
2022-10-16T06:26:25.163Z,66.68
2022-10-16T06:28:52.846Z,65.94
2022-10-16T06:31:20.050Z,65.42
2022-10-16T06:33:51.554Z,65.70
2022-10-16T06:36:19.184Z,65.47
2022-10-16T06:38:46.540Z,65.44
2022-10-16T06:41:18.970Z,65.61
2022-10-16T06:43:46.478Z,65.58
2022-10-16T06:46:15.620Z,65.73
2022-10-16T06:48:43.600Z,65.34
2022-10-16T06:51:13.080Z,64.93
2022-10-16T06:54:01.922Z,65.14
2022-10-16T06:56:32.303Z,64.94
2022-10-16T06:59:00.127Z,64.55
2022-10-16T07:01:27.588Z,64.74
2022-10-16T07:03:54.898Z,64.28
2022-10-16T07:06:24.183Z,64.36
2022-10-16T07:08:51.981Z,64.29
2022-10-16T07:11:22.068Z,64.38
2022-10-16T07:13:54.989Z,64.32
2022-10-16T07:16:26.925Z,63.21
2022-10-16T07:18:59.625Z,63.34
2022-10-16T07:21:30.596Z,63.68
2022-10-16T07:23:59.866Z,63.55
2022-10-16T07:26:29.366Z,64.02
2022-10-16T07:28:58.223Z,63.14
2022-10-16T07:31:26.623Z,63.92
2022-10-16T07:33:55.841Z,63.80
2022-10-16T07:36:24.569Z,63.93
2022-10-16T07:38:54.190Z,63.64
2022-10-16T07:41:24.419Z,64.21
2022-10-16T07:43:53.545Z,63.48
2022-10-16T07:46:22.740Z,63.26
2022-10-16T07:48:50.089Z,63.21
2022-10-16T07:51:25.411Z,63.90
2022-10-16T07:53:53.809Z,64.83
2022-10-16T07:56:22.017Z,64.03
2022-10-16T07:58:51.289Z,63.63
2022-10-16T08:01:19.321Z,64.00
2022-10-16T08:03:52.450Z,64.57
2022-10-16T08:06:25.213Z,64.33
2022-10-16T08:08:56.892Z,64.22
2022-10-16T08:11:24.541Z,64.20
2022-10-16T08:13:54.658Z,64.15
2022-10-16T08:16:23.215Z,63.56
2022-10-16T08:18:52.324Z,64.27
2022-10-16T08:21:24.404Z,63.87
2022-10-16T08:23:55.054Z,64.19
2022-10-16T08:26:26.189Z,63.88
2022-10-16T08:28:53.491Z,63.48
2022-10-16T08:31:21.772Z,63.73
2022-10-16T08:33:49.008Z,63.66
2022-10-16T08:36:17.661Z,62.88
2022-10-16T08:38:44.843Z,62.24
2022-10-16T08:41:21.101Z,62.26
2022-10-16T08:44:20.151Z,62.40
2022-10-16T08:46:53.147Z,62.62
2022-10-16T08:49:20.333Z,62.71
2022-10-16T08:51:49.806Z,62.43
2022-10-16T08:54:41.811Z,62.16
2022-10-16T08:57:23.121Z,62.80
2022-10-16T08:59:52.265Z,62.51
2022-10-16T09:02:25.870Z,61.49
2022-10-16T09:05:19.724Z,60.92
2022-10-16T09:07:52.398Z,61.32
2022-10-16T09:10:37.911Z,61.64
2022-10-16T09:13:13.778Z,61.33
2022-10-16T09:15:45.030Z,61.27
2022-10-16T09:18:39.367Z,60.72
2022-10-16T09:21:20.849Z,60.73
2022-10-16T09:23:49.216Z,59.95
2022-10-16T09:26:17.965Z,60.23
2022-10-16T09:28:46.119Z,60.86
2022-10-16T09:31:22.338Z,60.02
2022-10-16T09:33:56.250Z,60.28
2022-10-16T09:36:26.323Z,59.58
2022-10-16T09:39:07.050Z,58.92
2022-10-16T09:41:38.459Z,59.67
2022-10-16T09:44:17.568Z,59.25
2022-10-16T09:46:44.555Z,59.16
2022-10-16T09:49:26.338Z,58.98
2022-10-16T09:52:04.624Z,59.36
2022-10-16T09:54:31.499Z,59.50
2022-10-16T09:57:08.749Z,58.80
2022-10-16T09:59:47.956Z,58.29
2022-10-16T10:02:16.909Z,59.22
2022-10-16T10:04:50.920Z,58.49
2022-10-16T10:07:22.454Z,58.52
2022-10-16T10:09:49.450Z,58.24
2022-10-16T10:12:28.830Z,57.78
2022-10-16T10:14:58.997Z,57.70
2022-10-16T10:17:29.786Z,56.80
2022-10-16T10:20:01.958Z,56.19
2022-10-16T10:22:47.821Z,56.57
2022-10-16T10:25:14.864Z,56.42
2022-10-16T10:27:44.995Z,56.50
2022-10-16T10:30:49.395Z,56.56
2022-10-16T10:33:32.819Z,56.63
2022-10-16T10:36:14.821Z,56.23
2022-10-16T10:38:48.357Z,55.74
2022-10-16T10:41:54.057Z,56.71
2022-10-16T10:44:46.142Z,55.45
2022-10-16T10:47:48.571Z,55.33
2022-10-16T10:50:27.699Z,54.70
2022-10-16T10:53:10.509Z,55.32
2022-10-16T10:55:47.435Z,53.97
2022-10-16T10:58:36.291Z,54.42
2022-10-16T11:01:13.095Z,54.01
2022-10-16T11:04:13.173Z,54.29
2022-10-16T11:07:01.914Z,54.20
2022-10-16T11:09:37.792Z,54.87
2022-10-16T11:12:35.790Z,53.98
2022-10-16T11:15:13.772Z,53.94
2022-10-16T11:17:51.533Z,54.22
2022-10-16T11:20:24.188Z,54.91
2022-10-16T11:22:57.722Z,53.42
2022-10-16T11:25:29.151Z,52.38
2022-10-16T11:28:02.858Z,52.49
2022-10-16T11:30:34.619Z,52.12
2022-10-16T11:33:16.658Z,51.66
2022-10-16T11:36:24.962Z,51.55
2022-10-16T11:39:10.582Z,51.78
2022-10-16T11:41:37.364Z,51.92
2022-10-16T11:44:41.873Z,51.87
2022-10-16T11:47:57.568Z,52.52
2022-10-16T11:50:32.492Z,52.82
2022-10-16T11:53:32.577Z,53.03
2022-10-16T11:55:59.465Z,52.68
2022-10-16T11:58:29.847Z,51.63
2022-10-16T12:00:59.714Z,50.45
2022-10-16T12:03:58.051Z,51.08
2022-10-16T12:06:52.186Z,51.44
2022-10-16T12:09:31.504Z,50.84
2022-10-16T12:11:59.265Z,50.94
2022-10-16T12:14:57.430Z,51.43
2022-10-16T12:17:37.898Z,51.51
2022-10-16T12:20:14.965Z,51.31
2022-10-16T12:22:48.947Z,50.75
2022-10-16T12:25:47.594Z,51.55
2022-10-16T12:28:22.616Z,50.49
2022-10-16T12:30:59.167Z,50.66
2022-10-16T12:33:35.204Z,50.36
2022-10-16T12:36:06.119Z,50.51
2022-10-16T12:38:52.011Z,50.67
2022-10-16T12:41:45.261Z,49.46
2022-10-16T12:44:25.183Z,48.74
2022-10-16T12:46:52.034Z,49.83
2022-10-16T12:49:33.580Z,48.35
2022-10-16T12:52:01.429Z,48.49
2022-10-16T12:54:36.462Z,48.96
2022-10-16T12:57:28.116Z,48.73
2022-10-16T12:59:55.325Z,49.23
2022-10-16T13:02:34.455Z,49.15
2022-10-16T13:05:15.734Z,48.93
2022-10-16T13:08:12.745Z,49.44
2022-10-16T13:10:39.629Z,49.05
2022-10-16T13:13:06.562Z,49.25
2022-10-16T13:15:53.170Z,50.25
2022-10-16T13:18:32.042Z,50.39
2022-10-16T13:21:05.045Z,50.64
2022-10-16T13:23:43.912Z,50.38
2022-10-16T13:26:19.991Z,50.88
2022-10-16T13:28:47.397Z,50.74
2022-10-16T13:31:26.315Z,50.48
2022-10-16T13:33:56.850Z,49.52
2022-10-16T13:36:36.851Z,49.21
2022-10-16T13:39:18.181Z,49.07
2022-10-16T13:41:46.098Z,48.78
2022-10-16T13:44:21.808Z,48.77
2022-10-16T13:47:23.126Z,48.77
2022-10-16T13:50:15.340Z,48.83
2022-10-16T13:52:43.894Z,48.26
2022-10-16T13:55:13.600Z,48.63
2022-10-16T13:57:40.919Z,48.72
2022-10-16T14:00:31.570Z,48.51
2022-10-16T14:03:04.667Z,48.67
2022-10-16T14:05:32.217Z,48.43
2022-10-16T14:08:00.049Z,48.86
2022-10-16T14:10:31.060Z,48.77
2022-10-16T14:12:59.255Z,48.88
2022-10-16T14:15:26.701Z,49.20
2022-10-16T14:17:54.566Z,49.28
2022-10-16T14:20:28.297Z,49.82
2022-10-16T14:23:05.821Z,49.57
2022-10-16T14:25:37.449Z,49.73
2022-10-16T14:28:11.066Z,49.77
2022-10-16T14:30:38.900Z,50.03
2022-10-16T14:33:21.227Z,50.04
2022-10-16T14:36:19.821Z,50.04
2022-10-16T14:39:19.930Z,50.52
2022-10-16T14:41:51.922Z,50.56
2022-10-16T14:44:21.547Z,50.48
2022-10-16T14:46:48.927Z,51.18
2022-10-16T14:49:21.997Z,51.23
2022-10-16T14:51:49.951Z,51.65
2022-10-16T14:54:20.086Z,51.42
2022-10-16T14:56:55.760Z,52.08
2022-10-16T14:59:36.801Z,52.36
2022-10-16T15:02:18.853Z,52.70
2022-10-16T15:04:47.643Z,52.87
2022-10-16T15:07:15.084Z,53.27
2022-10-16T15:09:48.041Z,53.67
2022-10-16T15:12:17.932Z,53.67
2022-10-16T15:14:45.246Z,53.75
2022-10-16T15:17:14.616Z,53.93
2022-10-16T15:19:43.842Z,54.65
2022-10-16T15:22:13.306Z,54.86
2022-10-16T15:24:40.601Z,54.67
2022-10-16T15:27:07.750Z,55.27
2022-10-16T15:29:34.628Z,55.50
2022-10-16T15:32:02.064Z,56.04
2022-10-16T15:34:31.060Z,56.08
2022-10-16T15:36:59.464Z,56.33
2022-10-16T15:39:26.352Z,56.46
2022-10-16T15:41:54.282Z,56.59
2022-10-16T15:44:24.828Z,57.12
2022-10-16T15:46:55.630Z,57.23
2022-10-16T15:49:23.886Z,57.52
2022-10-16T15:51:53.830Z,57.97
2022-10-16T15:54:22.881Z,58.04
2022-10-16T15:56:50.361Z,58.09
2022-10-16T15:59:17.427Z,58.33
2022-10-16T16:01:44.543Z,58.74
2022-10-16T16:04:31.867Z,58.84
2022-10-16T16:06:59.131Z,58.80
2022-10-16T16:09:26.319Z,58.80
2022-10-16T16:11:53.541Z,59.12
2022-10-16T16:14:20.633Z,59.31
2022-10-16T16:16:47.926Z,59.54
2022-10-16T16:19:17.454Z,59.59
2022-10-16T16:21:46.396Z,59.92
2022-10-16T16:24:14.539Z,60.01
2022-10-16T16:26:44.404Z,60.17
2022-10-16T16:29:16.605Z,60.29
2022-10-16T16:31:44.257Z,60.54
2022-10-16T16:34:19.864Z,60.56
2022-10-16T16:36:47.912Z,60.69
2022-10-16T16:39:16.031Z,60.68
2022-10-16T16:41:46.749Z,60.87
2022-10-16T16:44:15.296Z,61.08
2022-10-16T16:46:44.648Z,61.04
2022-10-16T16:49:13.837Z,61.20
2022-10-16T16:51:41.009Z,61.17
2022-10-16T16:54:09.257Z,61.37
2022-10-16T16:56:36.538Z,61.50
2022-10-16T16:59:06.136Z,61.59
2022-10-16T17:01:33.850Z,61.59
2022-10-16T17:04:02.321Z,61.62
2022-10-16T17:06:30.692Z,61.65
2022-10-16T17:08:58.489Z,61.81
2022-10-16T17:11:28.557Z,62.02
2022-10-16T17:13:58.531Z,61.93
2022-10-16T17:16:29.993Z,62.00
2022-10-16T17:19:03.073Z,62.03
2022-10-16T17:21:34.450Z,62.12
2022-10-16T17:24:03.116Z,62.41
2022-10-16T17:26:31.549Z,62.32
2022-10-16T17:29:02.650Z,62.25
2022-10-16T17:31:34.200Z,62.31
2022-10-16T17:34:05.206Z,62.30
2022-10-16T17:36:35.882Z,62.29
2022-10-16T17:39:08.800Z,62.57
2022-10-16T17:41:37.044Z,62.62
2022-10-16T17:44:05.392Z,62.46
2022-10-16T17:46:36.827Z,62.53
2022-10-16T17:49:07.175Z,62.54
2022-10-16T17:51:34.470Z,62.29
2022-10-16T17:54:01.808Z,62.46
2022-10-16T17:56:29.819Z,62.33
2022-10-16T17:59:00.182Z,62.40
2022-10-16T18:01:33.814Z,62.19
2022-10-16T18:04:04.834Z,62.05
2022-10-16T18:06:32.805Z,61.97
2022-10-16T18:09:00.498Z,61.90
2022-10-16T18:11:28.491Z,62.27
2022-10-16T18:13:58.361Z,62.27
2022-10-16T18:16:28.677Z,62.30
2022-10-16T18:18:57.493Z,62.34
2022-10-16T18:21:29.715Z,62.45
2022-10-16T18:23:59.555Z,63.22
2022-10-16T18:26:28.120Z,63.06
2022-10-16T18:28:57.600Z,63.25
2022-10-16T18:31:29.349Z,63.39
2022-10-16T18:33:59.449Z,63.42
2022-10-16T18:36:31.009Z,63.64
2022-10-16T18:39:00.022Z,63.55
2022-10-16T18:41:28.319Z,63.95
2022-10-16T18:43:59.034Z,64.00
2022-10-16T18:46:26.417Z,64.30
2022-10-16T18:48:56.817Z,64.44
2022-10-16T18:51:30.416Z,64.34
2022-10-16T18:54:01.516Z,64.44
2022-10-16T18:56:30.484Z,64.45
2022-10-16T18:59:00.692Z,64.01
2022-10-16T19:01:31.036Z,63.86
2022-10-16T19:04:04.499Z,63.68
2022-10-16T19:06:35.933Z,63.64
2022-10-16T19:09:03.706Z,63.09
2022-10-16T19:11:31.192Z,63.27
2022-10-16T19:13:58.933Z,63.32
2022-10-16T19:16:29.512Z,63.06
2022-10-16T19:18:58.965Z,63.13
2022-10-16T19:21:27.775Z,63.16
2022-10-16T19:23:59.569Z,63.33
2022-10-16T19:26:29.557Z,63.38
2022-10-16T19:28:58.903Z,63.38
2022-10-16T19:31:28.844Z,63.53
2022-10-16T19:33:59.188Z,63.58
2022-10-16T19:36:31.982Z,64.02
2022-10-16T19:39:07.645Z,63.61
2022-10-16T19:41:36.941Z,63.54
2022-10-16T19:44:06.590Z,63.50
2022-10-16T19:46:34.446Z,63.40
2022-10-16T19:49:05.243Z,62.82
2022-10-16T19:51:32.719Z,62.60
2022-10-16T19:54:07.742Z,62.66
2022-10-16T19:56:36.113Z,62.45
2022-10-16T19:59:04.593Z,62.13
2022-10-16T20:01:33.005Z,62.53
2022-10-16T20:04:01.157Z,62.40
2022-10-16T20:06:28.669Z,62.36
2022-10-16T20:08:58.243Z,62.25
2022-10-16T20:11:28.819Z,62.22
2022-10-16T20:13:56.174Z,61.99
2022-10-16T20:16:23.390Z,62.14
2022-10-16T20:18:51.814Z,61.79
2022-10-16T20:21:22.360Z,61.60
2022-10-16T20:23:51.112Z,61.68
2022-10-16T20:26:20.518Z,61.19
2022-10-16T20:28:47.510Z,61.43
2022-10-16T20:31:19.771Z,61.16
2022-10-16T20:33:46.953Z,61.29
2022-10-16T20:36:15.181Z,61.27
2022-10-16T20:38:43.127Z,61.17
2022-10-16T20:41:10.735Z,61.04
2022-10-16T20:43:41.263Z,60.85
2022-10-16T20:46:13.327Z,61.11
2022-10-16T20:48:44.047Z,61.16
2022-10-16T20:51:33.025Z,61.20
2022-10-16T20:54:03.443Z,61.19
2022-10-16T20:56:32.577Z,61.36
2022-10-16T20:59:00.077Z,61.30
2022-10-16T21:01:29.224Z,61.52
2022-10-16T21:04:01.864Z,61.57
2022-10-16T21:06:29.466Z,61.30
2022-10-16T21:08:56.519Z,61.44
2022-10-16T21:11:27.944Z,61.70
2022-10-16T21:13:57.461Z,61.39
2022-10-16T21:16:25.073Z,61.31
2022-10-16T21:18:53.285Z,61.39
2022-10-16T21:21:26.060Z,61.50
2022-10-16T21:23:53.549Z,61.45
2022-10-16T21:26:28.222Z,61.18
2022-10-16T21:29:04.848Z,60.95
2022-10-16T21:31:32.513Z,61.21
2022-10-16T21:33:59.748Z,60.99
2022-10-16T21:36:32.294Z,60.94
2022-10-16T21:39:06.210Z,61.31
2022-10-16T21:41:34.486Z,60.98
2022-10-16T21:44:01.945Z,61.16
2022-10-16T21:46:31.671Z,61.12
2022-10-16T21:49:01.559Z,61.25
2022-10-16T21:51:31.321Z,61.48
2022-10-16T21:53:58.095Z,61.77
2022-10-16T21:56:24.928Z,62.01
2022-10-16T21:58:52.269Z,61.77
2022-10-16T22:01:23.050Z,61.96
2022-10-16T22:03:50.703Z,62.07
2022-10-16T22:08:48.458Z,62.36
2022-10-16T22:11:22.062Z,62.53
2022-10-16T22:13:56.386Z,62.87
2022-10-16T22:16:26.017Z,62.57
2022-10-16T22:18:54.806Z,62.82
2022-10-16T22:21:21.661Z,63.08
2022-10-16T22:23:48.530Z,62.88
2022-10-16T22:26:15.916Z,63.14
2022-10-16T22:28:42.912Z,63.65
2022-10-16T22:31:12.017Z,63.65
2022-10-16T22:33:39.602Z,63.65
2022-10-16T22:36:10.424Z,63.64
2022-10-16T22:38:37.877Z,63.60
2022-10-16T22:41:06.741Z,63.71
2022-10-16T22:43:38.935Z,63.90
2022-10-16T22:46:10.034Z,63.65
2022-10-16T22:48:37.434Z,64.08
2022-10-16T22:51:06.154Z,64.00
2022-10-16T22:53:33.612Z,64.60
2022-10-16T22:56:00.501Z,64.59
2022-10-16T22:58:27.603Z,64.63
2022-10-16T23:00:54.632Z,64.92
2022-10-16T23:03:21.592Z,64.43
2022-10-16T23:05:48.503Z,64.67
2022-10-16T23:08:15.761Z,64.82
2022-10-16T23:10:44.719Z,65.00
2022-10-16T23:13:12.144Z,64.69
2022-10-16T23:15:40.572Z,64.67
2022-10-16T23:18:07.863Z,64.54
2022-10-16T23:20:35.160Z,64.54
2022-10-16T23:23:02.085Z,65.09
2022-10-16T23:25:28.956Z,64.98
2022-10-16T23:27:56.120Z,64.48
2022-10-16T23:30:23.176Z,64.43
2022-10-16T23:32:50.021Z,64.86
2022-10-16T23:35:16.825Z,65.10
2022-10-16T23:37:43.836Z,65.03
2022-10-16T23:40:11.140Z,65.20
2022-10-16T23:42:37.910Z,65.50
2022-10-16T23:45:05.803Z,64.92
2022-10-16T23:47:32.566Z,65.41
2022-10-16T23:49:59.505Z,64.96
2022-10-16T23:52:26.423Z,65.76
2022-10-16T23:54:53.238Z,65.58
2022-10-16T23:57:19.988Z,65.84
2022-10-16T23:59:46.840Z,66.12
